createdAt,value
2022-09-12T00:02:04.598Z,2.77
2022-09-12T00:04:32.665Z,2.90
2022-09-12T00:07:00.612Z,2.93
2022-09-12T00:09:28.573Z,3.10
2022-09-12T00:11:56.734Z,2.83
2022-09-12T00:14:24.675Z,3.07
2022-09-12T00:16:54.227Z,3.23
2022-09-12T00:19:22.316Z,2.90
2022-09-12T00:21:50.591Z,2.47
2022-09-12T00:24:18.586Z,2.60
2022-09-12T00:26:46.619Z,2.87
2022-09-12T00:29:17.922Z,2.77
2022-09-12T00:31:46.686Z,2.77
2022-09-12T00:34:16.305Z,2.90
2022-09-12T00:36:44.351Z,2.73
2022-09-12T00:39:17.100Z,2.80
2022-09-12T00:41:45.907Z,2.73
2022-09-12T00:44:49.714Z,2.83
2022-09-12T00:47:29.762Z,2.70
2022-09-12T00:50:07.215Z,3.07
2022-09-12T00:52:41.364Z,2.90
2022-09-12T00:55:14.091Z,3.03
2022-09-12T00:57:47.062Z,3.13
2022-09-12T01:00:17.553Z,2.80
2022-09-12T01:02:49.769Z,2.77
2022-09-12T01:05:19.782Z,3.27
2022-09-12T01:07:50.361Z,3.13
2022-09-12T01:10:19.753Z,3.07
2022-09-12T01:12:48.194Z,2.70
2022-09-12T01:15:16.290Z,3.10
2022-09-12T01:17:56.423Z,2.97
2022-09-12T01:20:40.120Z,3.23
2022-09-12T01:23:26.282Z,3.23
2022-09-12T01:26:12.256Z,3.10
2022-09-12T01:29:06.304Z,2.83
2022-09-12T01:31:42.036Z,2.87
2022-09-12T01:34:19.474Z,3.17
2022-09-12T01:36:58.968Z,3.20
2022-09-12T01:39:37.367Z,4.47
2022-09-12T01:42:12.888Z,3.30
2022-09-12T01:44:49.356Z,3.43
2022-09-12T01:47:25.206Z,3.47
2022-09-12T01:49:59.062Z,3.80
2022-09-12T01:52:32.991Z,3.77
2022-09-12T01:55:09.618Z,3.97
2022-09-12T01:57:43.249Z,3.97
2022-09-12T02:00:13.828Z,3.77
2022-09-12T02:02:50.742Z,3.93
2022-09-12T02:05:25.015Z,3.80
2022-09-12T02:07:57.097Z,3.83
2022-09-12T02:10:32.236Z,3.83
2022-09-12T02:13:07.666Z,3.90
2022-09-12T02:15:39.863Z,3.80
2022-09-12T02:18:14.652Z,3.27
2022-09-12T02:20:48.497Z,4.03
2022-09-12T02:23:22.472Z,3.50
2022-09-12T02:25:54.003Z,3.57
2022-09-12T02:28:26.668Z,3.33
2022-09-12T02:31:01.846Z,3.70
2022-09-12T02:33:38.122Z,3.73
2022-09-12T02:36:14.566Z,3.47
2022-09-12T02:38:46.691Z,4.13
2022-09-12T02:41:18.935Z,4.73
2022-09-12T02:43:47.896Z,5.03
2022-09-12T02:46:23.082Z,4.50
2022-09-12T02:48:52.960Z,4.20
2022-09-12T02:51:23.805Z,3.87
2022-09-12T02:53:52.729Z,4.30
2022-09-12T02:56:27.094Z,4.73
2022-09-12T02:58:58.986Z,4.47
2022-09-12T03:01:50.812Z,4.20
2022-09-12T03:04:54.794Z,4.07
2022-09-12T03:07:43.688Z,3.73
2022-09-12T03:10:22.176Z,3.90
2022-09-12T03:12:59.674Z,4.03
2022-09-12T03:15:40.356Z,4.03
2022-09-12T03:18:21.432Z,4.30
2022-09-12T03:20:58.856Z,4.20
2022-09-12T03:23:34.555Z,4.10
2022-09-12T03:26:07.344Z,3.67
2022-09-12T03:28:36.939Z,3.73
2022-09-12T03:31:14.288Z,3.90
2022-09-12T03:33:42.478Z,3.77
2022-09-12T03:36:17.329Z,4.40
2022-09-12T03:38:45.713Z,5.03
2022-09-12T03:41:13.787Z,4.13
2022-09-12T03:43:41.870Z,4.50
2022-09-12T03:46:09.998Z,3.83
2022-09-12T03:48:38.196Z,3.83
2022-09-12T03:51:08.926Z,3.80
2022-09-12T03:53:38.742Z,3.70
2022-09-12T03:56:11.527Z,3.40
2022-09-12T03:58:40.644Z,3.20
2022-09-12T04:01:12.835Z,3.93
2022-09-12T04:03:41.416Z,3.83
2022-09-12T04:06:10.998Z,4.00
2022-09-12T04:08:41.157Z,3.47
2022-09-12T04:11:11.544Z,4.63
2022-09-12T04:13:41.544Z,3.40
2022-09-12T04:16:10.390Z,3.63
2022-09-12T04:18:39.226Z,3.70
2022-09-12T04:21:09.961Z,4.47
2022-09-12T04:23:38.128Z,3.67
2022-09-12T04:26:08.404Z,3.53
2022-09-12T04:28:37.989Z,4.17
2022-09-12T04:31:08.170Z,3.70
2022-09-12T04:33:36.381Z,3.87
2022-09-12T04:36:06.462Z,3.40
2022-09-12T04:38:34.723Z,3.27
2022-09-12T04:41:03.204Z,3.57
2022-09-12T04:43:32.667Z,4.20
2022-09-12T04:46:07.080Z,3.50
2022-09-12T04:48:35.188Z,3.27
2022-09-12T04:51:10.730Z,4.70
2022-09-12T04:53:39.246Z,3.43
2022-09-12T04:56:09.675Z,2.90
2022-09-12T04:58:39.792Z,3.60
2022-09-12T05:01:09.181Z,3.17
2022-09-12T05:03:39.048Z,3.03
2022-09-12T05:06:09.249Z,2.97
2022-09-12T05:08:37.574Z,3.20
2022-09-12T05:11:07.885Z,2.83
2022-09-12T05:13:36.913Z,2.60
2022-09-12T05:16:08.249Z,3.13
2022-09-12T05:18:37.637Z,2.80
2022-09-12T05:21:08.136Z,2.80
2022-09-12T05:23:36.911Z,3.10
2022-09-12T05:26:07.170Z,2.63
2022-09-12T05:28:38.566Z,3.10
2022-09-12T05:31:10.392Z,3.33
2022-09-12T05:33:40.100Z,2.70
2022-09-12T05:36:11.479Z,2.67
2022-09-12T05:38:40.045Z,2.30
2022-09-12T05:41:16.941Z,3.37
2022-09-12T05:43:46.876Z,2.47
2022-09-12T05:46:18.122Z,2.30
2022-09-12T05:48:51.435Z,2.90
2022-09-12T05:51:23.792Z,2.47
2022-09-12T05:53:54.383Z,2.33
2022-09-12T05:56:25.544Z,2.50
2022-09-12T05:58:55.994Z,2.63
2022-09-12T06:01:27.397Z,2.33
2022-09-12T06:03:57.826Z,2.30
2022-09-12T06:06:27.978Z,2.50
2022-09-12T06:08:59.038Z,2.40
2022-09-12T06:11:31.267Z,2.60
2022-09-12T06:14:00.176Z,2.43
2022-09-12T06:16:31.730Z,2.10
2022-09-12T06:19:01.268Z,2.17
2022-09-12T06:21:31.392Z,2.03
2022-09-12T06:24:00.149Z,1.70
2022-09-12T06:26:30.252Z,2.63
2022-09-12T06:29:00.794Z,1.70
2022-09-12T06:31:32.185Z,2.20
2022-09-12T06:34:02.386Z,1.90
2022-09-12T06:36:32.703Z,2.20
2022-09-12T06:39:02.855Z,2.10
2022-09-12T06:41:32.460Z,1.60
2022-09-12T06:44:01.541Z,2.00
2022-09-12T06:46:32.357Z,1.70
2022-09-12T06:49:02.063Z,1.53
2022-09-12T06:51:30.360Z,1.70
2022-09-12T06:53:59.316Z,1.87
2022-09-12T06:56:28.935Z,2.50
2022-09-12T06:58:58.532Z,2.47
2022-09-12T07:01:28.394Z,1.60
2022-09-12T07:04:00.166Z,1.90
2022-09-12T07:06:32.238Z,1.60
2022-09-12T07:09:01.446Z,1.53
2022-09-12T07:11:34.954Z,1.67
2022-09-12T07:14:06.296Z,1.57
2022-09-12T07:16:36.987Z,1.50
2022-09-12T07:19:09.013Z,1.57
2022-09-12T07:21:40.666Z,1.50
2022-09-12T07:24:11.162Z,1.60
2022-09-12T07:26:40.768Z,1.33
2022-09-12T07:29:35.395Z,1.77
2022-09-12T07:32:02.005Z,1.43
2022-09-12T07:34:31.944Z,1.50
2022-09-12T07:37:00.647Z,1.60
2022-09-12T07:39:28.735Z,1.40
2022-09-12T07:41:57.532Z,1.27
2022-09-12T07:44:27.117Z,1.30
2022-09-12T07:46:55.493Z,1.30
2022-09-12T07:49:24.286Z,1.47
2022-09-12T07:51:54.826Z,1.67
2022-09-12T07:54:23.957Z,1.30
2022-09-12T07:56:52.309Z,1.33
2022-09-12T07:59:41.801Z,1.73
2022-09-12T08:02:17.126Z,1.33
2022-09-12T08:04:48.460Z,1.80
2022-09-12T08:07:19.505Z,1.30
2022-09-12T08:09:47.770Z,1.50
2022-09-12T08:12:16.867Z,1.20
2022-09-12T08:14:45.475Z,1.43
2022-09-12T08:17:14.425Z,1.40
2022-09-12T08:19:42.940Z,1.63
2022-09-12T08:22:11.684Z,1.33
2022-09-12T08:24:41.225Z,1.57
2022-09-12T08:27:09.920Z,1.60
2022-09-12T08:29:40.834Z,2.07
2022-09-12T08:32:09.294Z,1.83
2022-09-12T08:34:37.707Z,1.60
2022-09-12T08:37:06.261Z,1.60
2022-09-12T08:39:48.285Z,1.60
2022-09-12T08:42:25.975Z,1.70
2022-09-12T08:45:13.378Z,3.23
2022-09-12T08:47:45.303Z,2.80
2022-09-12T08:50:17.942Z,3.90
2022-09-12T08:52:54.808Z,4.37
2022-09-12T08:55:37.616Z,3.43
2022-09-12T08:58:16.419Z,3.30
2022-09-12T09:00:52.810Z,3.13
2022-09-12T09:03:52.339Z,3.20
2022-09-12T09:06:33.685Z,2.90
2022-09-12T09:09:07.451Z,2.40
2022-09-12T09:11:54.766Z,2.30
2022-09-12T09:15:01.970Z,1.90
2022-09-12T09:17:36.615Z,1.60
2022-09-12T09:20:08.604Z,1.67
2022-09-12T09:22:43.879Z,2.20
2022-09-12T09:25:23.022Z,1.70
2022-09-12T09:27:57.826Z,1.90
2022-09-12T09:30:27.420Z,1.73
2022-09-12T09:33:01.046Z,1.90
2022-09-12T09:35:40.345Z,1.80
2022-09-12T09:38:24.881Z,1.70
2022-09-12T09:41:05.414Z,2.20
2022-09-12T09:43:34.096Z,2.53
2022-09-12T09:46:02.339Z,1.40
2022-09-12T09:48:34.421Z,1.63
2022-09-12T09:51:05.583Z,1.80
2022-09-12T09:53:40.938Z,1.77
2022-09-12T09:56:14.928Z,1.47
2022-09-12T09:58:43.787Z,1.70
2022-09-12T10:01:18.418Z,1.47
2022-09-12T10:03:52.800Z,1.80
2022-09-12T10:06:28.199Z,1.33
2022-09-12T10:09:08.139Z,1.97
2022-09-12T10:11:37.521Z,1.70
2022-09-12T10:14:05.794Z,1.43
2022-09-12T10:16:36.117Z,1.60
2022-09-12T10:19:06.455Z,1.80
2022-09-12T10:21:40.241Z,1.47
2022-09-12T10:24:22.780Z,1.70
2022-09-12T10:26:57.206Z,1.93
2022-09-12T10:29:29.516Z,1.93
2022-09-12T10:32:01.238Z,1.67
2022-09-12T10:34:36.795Z,1.83
2022-09-12T10:37:08.003Z,1.42
2022-09-12T10:39:38.013Z,1.35
2022-09-12T10:42:06.838Z,1.50
2022-09-12T10:44:36.222Z,1.85
2022-09-12T10:47:22.837Z,1.48
2022-09-12T10:49:52.791Z,1.60
2022-09-12T10:52:24.602Z,1.65
2022-09-12T10:54:53.240Z,1.60
2022-09-12T10:57:51.941Z,1.50
2022-09-12T11:00:27.749Z,1.45
2022-09-12T11:03:07.093Z,1.73
2022-09-12T11:05:54.920Z,1.27
2022-09-12T11:08:47.124Z,1.52
2022-09-12T11:11:41.716Z,1.52
2022-09-12T11:14:20.443Z,1.40
2022-09-12T11:16:56.673Z,1.88
2022-09-12T11:19:54.032Z,1.70
2022-09-12T11:22:37.845Z,1.50
2022-09-12T11:25:19.402Z,1.65
2022-09-12T11:28:16.578Z,2.08
2022-09-12T11:30:57.544Z,2.10
2022-09-12T11:33:43.984Z,1.88
2022-09-12T11:36:25.095Z,1.40
2022-09-12T11:39:03.423Z,1.60
2022-09-12T11:41:36.358Z,1.50
2022-09-12T11:44:14.722Z,1.50
2022-09-12T11:46:48.770Z,1.15
2022-09-12T11:49:27.561Z,1.20
2022-09-12T11:51:59.805Z,1.00
2022-09-12T11:54:34.534Z,1.30
2022-09-12T11:57:12.960Z,1.40
2022-09-12T11:59:46.957Z,1.20
2022-09-12T12:02:23.524Z,1.17
2022-09-12T12:05:04.023Z,1.55
2022-09-12T12:07:45.608Z,1.10
2022-09-12T12:10:30.567Z,1.08
2022-09-12T12:13:00.473Z,1.17
2022-09-12T12:15:29.611Z,1.17
2022-09-12T12:18:07.256Z,1.30
2022-09-12T12:20:36.466Z,1.17
2022-09-12T12:23:05.187Z,1.15
2022-09-12T12:25:53.819Z,1.20
2022-09-12T12:28:59.669Z,1.17
2022-09-12T12:31:28.067Z,1.20
2022-09-12T12:34:28.560Z,0.98
2022-09-12T12:36:56.847Z,1.15
2022-09-12T12:40:04.962Z,1.27
2022-09-12T12:43:13.011Z,1.27
2022-09-12T12:46:14.042Z,1.77
2022-09-12T12:49:05.633Z,1.30
2022-09-12T12:51:51.486Z,1.50
2022-09-12T12:54:50.417Z,1.30
2022-09-12T12:57:24.628Z,1.15
2022-09-12T12:59:55.283Z,1.80
2022-09-12T13:02:31.197Z,1.40
2022-09-12T13:05:02.676Z,1.30
2022-09-12T13:07:35.284Z,1.10
2022-09-12T13:10:04.870Z,1.25
2022-09-12T13:12:36.802Z,1.50
2022-09-12T13:15:27.099Z,1.40
2022-09-12T13:18:03.606Z,1.45
2022-09-12T13:20:46.224Z,1.73
2022-09-12T13:23:23.872Z,1.75
2022-09-12T13:25:56.400Z,1.50
2022-09-12T13:28:26.678Z,1.60
2022-09-12T13:31:02.012Z,1.40
2022-09-12T13:33:44.400Z,1.65
2022-09-12T13:36:28.476Z,1.30
2022-09-12T13:39:11.504Z,1.90
2022-09-12T13:42:04.568Z,1.50
2022-09-12T13:44:39.522Z,1.98
2022-09-12T13:47:07.753Z,1.60
2022-09-12T13:49:40.104Z,2.00
2022-09-12T13:52:11.423Z,1.60
2022-09-12T13:54:40.486Z,1.40
2022-09-12T13:57:08.762Z,1.73
2022-09-12T13:59:41.238Z,1.98
2022-09-12T14:02:21.220Z,1.60
2022-09-12T14:05:10.567Z,1.60
2022-09-12T14:07:55.256Z,1.42
2022-09-12T14:10:31.971Z,1.10
2022-09-12T14:13:01.393Z,1.80
2022-09-12T14:15:32.844Z,1.40
2022-09-12T14:18:04.013Z,1.10
2022-09-12T14:20:38.723Z,1.13
2022-09-12T14:23:22.830Z,1.20
2022-09-12T14:25:52.389Z,1.23
2022-09-12T14:28:24.297Z,1.10
2022-09-12T14:31:07.979Z,1.13
2022-09-12T14:33:51.384Z,1.10
2022-09-12T14:36:25.980Z,1.00
2022-09-12T14:38:57.410Z,1.02
2022-09-12T14:41:29.928Z,1.20
2022-09-12T14:44:06.047Z,1.20
2022-09-12T14:46:36.652Z,1.10
2022-09-12T14:49:11.419Z,1.20
2022-09-12T14:51:49.378Z,0.90
2022-09-12T14:54:46.493Z,0.80
2022-09-12T14:57:39.778Z,1.20
2022-09-12T15:00:21.142Z,0.93
2022-09-12T15:02:54.745Z,1.50
2022-09-12T15:05:29.761Z,1.50
2022-09-12T15:08:04.022Z,1.65
2022-09-12T15:10:35.762Z,1.48
2022-09-12T15:13:19.504Z,1.98
2022-09-12T15:15:53.253Z,1.55
2022-09-12T15:18:31.688Z,1.70
2022-09-12T15:21:09.239Z,1.45
2022-09-12T15:23:44.146Z,1.80
2022-09-12T15:26:15.331Z,2.00
2022-09-12T15:28:44.171Z,2.17
2022-09-12T15:31:20.619Z,2.40
2022-09-12T15:33:49.113Z,2.63
2022-09-12T15:36:20.400Z,3.25
2022-09-12T15:38:51.463Z,2.85
2022-09-12T15:41:21.922Z,3.47
2022-09-12T15:43:51.416Z,2.88
2022-09-12T15:46:46.198Z,2.50
2022-09-12T15:49:15.687Z,2.00
2022-09-12T15:51:44.240Z,2.88
2022-09-12T15:54:16.308Z,1.95
2022-09-12T15:56:44.591Z,1.98
2022-09-12T15:59:13.758Z,2.25
2022-09-12T16:01:41.957Z,1.48
2022-09-12T16:04:22.415Z,1.48
2022-09-12T16:06:59.040Z,1.40
2022-09-12T16:09:31.022Z,1.20
2022-09-12T16:12:01.700Z,1.23
2022-09-12T16:14:32.833Z,1.23
2022-09-12T16:17:20.361Z,0.85
2022-09-12T16:19:48.537Z,1.00
2022-09-12T16:22:16.769Z,0.95
2022-09-12T16:24:46.500Z,0.93
2022-09-12T16:27:14.759Z,0.90
2022-09-12T16:29:44.827Z,1.35
2022-09-12T16:32:12.997Z,0.82
2022-09-12T16:34:41.545Z,0.80
2022-09-12T16:37:09.631Z,0.93
2022-09-12T16:39:38.172Z,0.98
2022-09-12T16:42:08.518Z,0.85
2022-09-12T16:44:37.290Z,0.80
2022-09-12T16:47:05.510Z,0.80
2022-09-12T16:49:34.679Z,0.88
2022-09-12T16:52:03.278Z,0.70
2022-09-12T16:54:31.564Z,0.80
2022-09-12T16:57:00.735Z,0.90
2022-09-12T16:59:31.162Z,1.02
2022-09-12T17:02:02.895Z,1.00
2022-09-12T17:04:31.451Z,0.80
2022-09-12T17:07:00.779Z,0.73
2022-09-12T17:09:29.667Z,0.73
2022-09-12T17:11:58.607Z,1.40
2022-09-12T17:14:59.907Z,1.50
2022-09-12T17:17:29.722Z,1.35
2022-09-12T17:19:58.123Z,1.70
2022-09-12T17:22:26.343Z,1.77
2022-09-12T17:24:55.632Z,1.20
2022-09-12T17:27:46.071Z,1.10
2022-09-12T17:30:14.901Z,1.40
2022-09-12T17:32:44.862Z,1.00
2022-09-12T17:35:13.440Z,1.03
2022-09-12T17:37:42.671Z,1.37
2022-09-12T17:40:12.316Z,1.10
2022-09-12T17:42:41.041Z,1.20
2022-09-12T17:45:17.822Z,1.03
2022-09-12T17:47:55.305Z,1.10
2022-09-12T17:50:32.082Z,1.10
2022-09-12T17:53:00.988Z,1.07
2022-09-12T17:55:32.142Z,0.90
2022-09-12T17:58:01.702Z,1.17
2022-09-12T18:03:39.257Z,0.87
2022-09-12T18:06:07.879Z,1.00
2022-09-12T18:08:36.162Z,1.00
2022-09-12T18:11:05.818Z,0.93
2022-09-12T18:13:34.265Z,0.90
2022-09-12T18:16:08.343Z,1.10
2022-09-12T18:18:38.719Z,0.90
2022-09-12T18:21:10.044Z,1.00
2022-09-12T18:23:39.422Z,1.00
2022-09-12T18:26:10.104Z,0.87
2022-09-12T18:28:40.400Z,1.10
2022-09-12T18:31:12.953Z,1.20
2022-09-12T18:33:43.083Z,1.00
2022-09-12T18:36:13.594Z,0.90
2022-09-12T18:38:44.363Z,0.83
2022-09-12T18:41:14.830Z,0.90
2022-09-12T18:43:43.588Z,1.20
2022-09-12T18:46:14.198Z,0.70
2022-09-12T18:48:44.875Z,1.20
2022-09-12T18:51:15.935Z,1.07
2022-09-12T18:54:37.607Z,1.03
2022-09-12T18:57:05.869Z,1.00
2022-09-12T18:59:34.147Z,1.50
2022-09-12T19:02:02.593Z,1.53
2022-09-12T19:04:33.012Z,1.83
2022-09-12T19:07:01.719Z,1.30
2022-09-12T19:09:29.883Z,1.20
2022-09-12T19:11:57.902Z,2.13
2022-09-12T19:14:28.341Z,1.80
2022-09-12T19:16:56.504Z,2.10
2022-09-12T19:20:06.481Z,1.90
2022-09-12T19:22:36.069Z,1.10
2022-09-12T19:25:04.341Z,1.10
2022-09-12T19:27:32.430Z,1.00
2022-09-12T19:30:00.570Z,1.20
2022-09-12T19:32:28.540Z,0.90
2022-09-12T19:34:56.852Z,0.90
2022-09-12T19:37:25.303Z,0.80
2022-09-12T19:39:55.004Z,1.10
2022-09-12T19:42:23.391Z,1.17
2022-09-12T19:44:55.908Z,0.87
2022-09-12T19:47:25.300Z,1.10
2022-09-12T19:49:54.840Z,0.87
2022-09-12T19:52:23.560Z,1.10
2022-09-12T19:54:51.760Z,1.07
2022-09-12T19:57:21.342Z,0.87
2022-09-12T19:59:49.354Z,1.10
2022-09-12T20:02:18.611Z,1.00
2022-09-12T20:04:47.619Z,1.27
2022-09-12T20:07:15.880Z,1.23
2022-09-12T20:09:44.018Z,1.30
2022-09-12T20:12:12.117Z,1.40
2022-09-12T20:14:41.831Z,0.97
2022-09-12T20:17:09.902Z,1.13
2022-09-12T20:19:38.120Z,1.30
2022-09-12T20:22:06.415Z,1.27
2022-09-12T20:24:34.453Z,1.20
2022-09-12T20:27:02.396Z,1.20
2022-09-12T20:29:30.668Z,1.20
2022-09-12T20:32:00.273Z,1.10
2022-09-12T20:34:28.399Z,1.33
2022-09-12T20:36:56.457Z,1.23
2022-09-12T20:39:24.978Z,1.20
2022-09-12T20:41:52.972Z,1.30
2022-09-12T20:44:21.465Z,1.40
2022-09-12T20:46:49.570Z,1.50
2022-09-12T20:49:19.258Z,1.33
2022-09-12T20:51:48.396Z,1.40
2022-09-12T20:54:16.605Z,1.20
2022-09-12T20:56:44.697Z,1.40
2022-09-12T20:59:13.369Z,1.40
2022-09-12T21:01:41.598Z,1.17
2022-09-12T21:04:14.304Z,1.43
2022-09-12T21:06:44.561Z,1.30
2022-09-12T21:09:12.846Z,1.20
2022-09-12T21:11:40.810Z,1.50
2022-09-12T21:14:08.923Z,1.20
2022-09-12T21:16:38.780Z,1.40
2022-09-12T21:19:07.549Z,1.43
2022-09-12T21:21:35.651Z,1.10
2022-09-12T21:24:05.722Z,1.10
2022-09-12T21:26:34.274Z,1.10
2022-09-12T21:29:02.746Z,1.20
2022-09-12T21:31:30.848Z,1.17
2022-09-12T21:33:59.070Z,1.27
2022-09-12T21:36:27.541Z,1.30
2022-09-12T21:38:59.026Z,1.10
2022-09-12T21:41:28.941Z,1.20
2022-09-12T21:43:57.046Z,1.60
2022-09-12T21:46:25.193Z,1.23
2022-09-12T21:48:53.273Z,1.30
2022-09-12T21:51:21.360Z,1.53
2022-09-12T21:53:49.575Z,1.30
2022-09-12T21:56:17.772Z,1.30
2022-09-12T21:58:47.570Z,1.50
2022-09-12T22:01:15.644Z,1.60
2022-09-12T22:03:44.957Z,1.70
2022-09-12T22:06:14.251Z,1.50
2022-09-12T22:08:42.426Z,2.10
2022-09-12T22:11:11.082Z,1.40
2022-09-12T22:13:40.718Z,1.10
2022-09-12T22:16:10.648Z,1.27
2022-09-12T22:18:39.567Z,1.50
2022-09-12T22:21:09.527Z,1.50
2022-09-12T22:23:54.761Z,1.43
2022-09-12T22:26:22.935Z,1.40
2022-09-12T22:28:51.770Z,1.27
2022-09-12T22:31:21.847Z,1.30
2022-09-12T22:33:51.548Z,1.20
2022-09-12T22:36:19.612Z,1.47
2022-09-12T22:38:47.721Z,1.50
2022-09-12T22:41:16.035Z,1.10
2022-09-12T22:43:44.086Z,1.20
2022-09-12T22:46:13.365Z,1.30
2022-09-12T22:48:43.400Z,0.93
2022-09-12T22:51:11.902Z,1.23
2022-09-12T22:53:40.147Z,1.33
2022-09-12T22:56:09.071Z,1.50
2022-09-12T22:58:38.366Z,1.47
2022-09-12T23:01:07.803Z,1.50
2022-09-12T23:03:36.548Z,1.03
2022-09-12T23:06:06.799Z,1.20
2022-09-12T23:08:35.959Z,1.20
2022-09-12T23:11:04.699Z,0.90
2022-09-12T23:13:33.116Z,1.10
2022-09-12T23:16:02.417Z,0.93
2022-09-12T23:18:30.586Z,1.00
2022-09-12T23:21:00.208Z,1.47
2022-09-12T23:23:30.706Z,0.90
2022-09-12T23:26:07.062Z,1.10
2022-09-12T23:28:35.907Z,0.83
2022-09-12T23:31:04.769Z,1.17
2022-09-12T23:33:33.835Z,0.97
2022-09-12T23:36:03.083Z,1.03
2022-09-12T23:38:33.828Z,1.07
2022-09-12T23:41:03.377Z,1.00
2022-09-12T23:43:32.131Z,0.90
2022-09-12T23:46:00.240Z,1.30
2022-09-12T23:48:28.574Z,0.90
2022-09-12T23:50:56.536Z,0.90
2022-09-12T23:53:25.323Z,1.03
2022-09-12T23:55:55.247Z,0.80
2022-09-12T23:58:23.425Z,0.90
